Nearby METAR Reports

 

YSCB - Canberra (civ/Mi, Australia
Distance from station: NNE 21km
Updated: 19/07/2018 07:30
Clear
Clear
 Wind from NNE
Wind: NNE 11 km/h
Temperature: 3°C
Wind Chill: 0°C
Dew Point: -1°C
Humidity: 75%
Barometer: 1016 hPa
Summary: Clear
Visibility: greater than 10 km
2018/07/18 21:30 YSCB 182130Z 02006KT CAVOK 03/M01 Q1016 FM0000 31017G27KT CAVOK FM2130 MOD TURB BLW 5000FT
YCOM - Cooma Snowy Mtns, Australia
Distance from station: S 94km
Updated: 19/07/2018 07:00
Clear
Clear
 Wind from NE
Wind: NE 17 km/h
Temperature: 1°C
Wind Chill: -3°C
Dew Point: -3°C
Humidity: 75%
Barometer: 1013 hPa
Clouds: Clear
Visibility: 10 km
2018/07/18 21:00 YCOM 182100Z AUTO 04009KT 9999 // NCD 01/M03 Q1013
 
YSNW - Nowra (aus-Navy), Australia
Distance from station: ENE 140km
Updated: 19/07/2018 07:00
Clear
Clear
 Wind from NW
Wind: NW 11 km/h
Temperature: 9°C
Wind Chill: 7°C
Dew Point: -1°C
Humidity: 50%
Barometer: 1014 hPa
Summary: Clear
Visibility: greater than 10 km
2018/07/18 21:00 YSNW 182100Z 31006KT CAVOK 09/M01 Q1014 FM2100 MOD/SEV TURB BLW 5000FT
YSWG - Wagga Wagga(Cv/M, Australia
Distance from station: WNW 153km
Updated: 19/07/2018 07:00
Clear
Clear
 Wind from ESE
Wind: ESE 15 km/h
Temperature: 2°C
Wind Chill: -2°C
Dew Point: 1°C
Humidity: 93%
Barometer: 1017 hPa
Clouds: Clear
Visibility: 10 km
2018/07/18 21:00 YSWG 182100Z AUTO 11008KT 9999 // NCD 02/01 Q1017
 
YMER - Merimbula Arpt, Australia
Distance from station: SSE 177km
Updated: 19/07/2018 07:00
Clear
Clear
 Wind from NNW
Wind: NNW 13 km/h
Temperature: 5°C
Wind Chill: 2°C
Dew Point: 1°C
Humidity: 76%
Barometer: 1013 hPa
Clouds: Clear
Visibility: 10 km
2018/07/18 21:00 YMER 182100Z AUTO 33007KT 9999 // NCD 05/01 Q1013
YMAY - Albury Airport, Australia
Distance from station: WSW 207km
Updated: 19/07/2018 07:00
Clear
Clear
 Wind from NNE
Wind: NNE 2 km/h
Temperature: -1°C
Dew Point: -1°C
Humidity: 100%
Barometer: 1016 hPa
Clouds: Clear
Visibility: 10 km
2018/07/18 21:00 YMAY 182100Z AUTO 02001KT 9999 // NCD M01/M01 Q1016
 
YNAR - Narrandera, Australia
Distance from station: WNW 250km
Updated: 19/07/2018 07:00

 Wind from NE
Wind: NE 6 km/h
Temperature: 4°C
Dew Point: 0°C
Humidity: 75%
Barometer: 1016 hPa
2018/07/18 21:00 YNAR 182100Z AUTO 05003KT //// // ////// 04/M00 Q1016
YSSY - Sydney Intl Airp, Australia
Distance from station: NE 253km
Updated: 19/07/2018 07:30
Clear
Clear
 Wind from NW
Wind: NW 11 km/h
Temperature: 8°C
Wind Chill: 6°C
Dew Point: -1°C
Humidity: 53%
Barometer: 1017 hPa
Summary: Clear
Visibility: greater than 10 km
2018/07/18 21:30 YSSY 182130Z 31006KT CAVOK 08/M01 Q1017 NOSIG
 
YSRI - Richmond (aus-Af, Australia
Distance from station: NE 257km
Updated: 19/07/2018 07:30
Clear
Clear
 Wind from calm
Wind: Calm
Temperature: -1°C
Dew Point: -2°C
Humidity: 93%
Barometer: 1017 hPa
Clouds: Clear
Visibility: 10 km
2018/07/18 21:30 YSRI 182130Z AUTO 00000KT 9999 // NCD M01/M02 Q1017 RF00.0/000.0 PRESENT WEATHER SENSOR US
YWGT - Wangaratta Arp, Australia
Distance from station: WSW 274km
Updated: 19/07/2018 07:00
Overcast
Overcast
 Wind from ESE
Wind: ESE 4 km/h
Temperature: 1°C
Dew Point: 0°C
Humidity: 93%
Barometer: 1015 hPa
Clouds: Overcast
Visibility: 10 km
Cloud details: Overcast 2286 m
2018/07/18 21:00 YWGT 182100Z AUTO 11002KT 9999 // OVC075 01/00 Q1015
 
YGTH - Griffith Arpt, Australia
Distance from station: WNW 308km
Updated: 19/07/2018 07:00
Clear
Clear
 Wind from WSW
Wind: WSW 6 km/h
Temperature: 0°C
Dew Point: -2°C
Humidity: 87%
Barometer: 1016 hPa
Clouds: Clear
Visibility: 10 km
2018/07/18 21:00 YGTH 182100Z AUTO 24003KT 9999 // NCD M00/M02 Q1016